createdAt,value
2023-05-16T00:01:09.383Z,46.60
2023-05-16T00:03:38.392Z,46.78
2023-05-16T00:06:06.108Z,47.00
2023-05-16T00:08:33.597Z,47.04
2023-05-16T00:11:01.632Z,46.99
2023-05-16T00:13:29.809Z,46.89
2023-05-16T00:15:59.493Z,46.64
2023-05-16T00:18:27.201Z,46.72
2023-05-16T00:20:55.591Z,47.25
2023-05-16T00:23:23.082Z,47.59
2023-05-16T00:25:50.873Z,47.56
2023-05-16T00:28:18.854Z,47.55
2023-05-16T00:30:46.397Z,48.31
2023-05-16T00:33:14.073Z,47.75
2023-05-16T00:35:41.657Z,47.62
2023-05-16T00:38:09.374Z,46.63
2023-05-16T00:40:37.165Z,46.57
2023-05-16T00:43:04.992Z,46.52
2023-05-16T00:45:32.478Z,46.23
2023-05-16T00:48:00.032Z,45.71
2023-05-16T00:50:27.821Z,45.79
2023-05-16T00:52:55.688Z,46.18
2023-05-16T00:55:23.226Z,46.64
2023-05-16T00:57:50.838Z,46.72
2023-05-16T01:00:20.009Z,47.00
2023-05-16T01:02:48.510Z,46.97
2023-05-16T01:05:16.239Z,46.89
2023-05-16T01:07:43.776Z,46.58
2023-05-16T01:10:11.559Z,46.10
2023-05-16T01:12:48.730Z,45.39
2023-05-16T01:15:21.778Z,45.79
2023-05-16T01:18:11.365Z,46.42
2023-05-16T01:20:52.518Z,45.73
2023-05-16T01:23:33.554Z,46.13
2023-05-16T01:26:19.760Z,45.21
2023-05-16T01:28:47.671Z,45.79
2023-05-16T01:31:15.238Z,46.02
2023-05-16T01:33:42.944Z,46.23
2023-05-16T01:36:23.923Z,46.37
2023-05-16T01:39:44.718Z,45.93
2023-05-16T01:42:14.198Z,46.03
2023-05-16T01:44:41.840Z,46.76
2023-05-16T01:47:13.483Z,46.62
2023-05-16T01:49:45.471Z,46.99
2023-05-16T01:52:16.489Z,46.79
2023-05-16T01:54:45.533Z,46.88
2023-05-16T01:57:13.205Z,47.15
2023-05-16T01:59:41.223Z,47.64
2023-05-16T02:02:09.176Z,47.39
2023-05-16T02:04:38.129Z,46.83
2023-05-16T02:07:06.554Z,46.94
2023-05-16T02:09:34.606Z,47.00
2023-05-16T02:12:02.487Z,46.87
2023-05-16T02:14:31.078Z,47.38
2023-05-16T02:16:58.824Z,47.69
2023-05-16T02:19:27.228Z,47.13
2023-05-16T02:21:54.752Z,47.69
2023-05-16T02:24:22.539Z,48.41
2023-05-16T02:26:49.966Z,48.10
2023-05-16T02:29:18.377Z,48.20
2023-05-16T02:31:47.249Z,48.74
2023-05-16T02:34:15.523Z,48.35
2023-05-16T02:36:43.229Z,49.31
2023-05-16T02:39:11.370Z,48.62
2023-05-16T02:41:38.859Z,49.42
2023-05-16T02:44:06.331Z,49.02
2023-05-16T02:46:34.654Z,48.72
2023-05-16T02:49:04.878Z,49.20
2023-05-16T02:51:32.438Z,49.65
2023-05-16T02:54:01.198Z,49.39
2023-05-16T02:56:28.794Z,48.90
2023-05-16T02:58:56.571Z,48.45
2023-05-16T03:01:24.307Z,49.94
2023-05-16T03:03:52.154Z,49.47
2023-05-16T03:06:19.747Z,50.05
2023-05-16T03:08:47.503Z,49.45
2023-05-16T03:11:22.870Z,50.17
2023-05-16T03:13:50.915Z,50.66
2023-05-16T03:16:18.558Z,51.22
2023-05-16T03:18:46.455Z,51.04
2023-05-16T03:21:14.093Z,49.89
2023-05-16T03:23:41.772Z,51.28
2023-05-16T03:26:09.431Z,50.34
2023-05-16T03:28:37.518Z,49.53
2023-05-16T03:31:05.312Z,49.47
2023-05-16T03:33:32.943Z,49.40
2023-05-16T03:36:00.507Z,48.68
2023-05-16T03:38:28.169Z,49.53
2023-05-16T03:40:56.310Z,49.69
2023-05-16T03:43:24.028Z,49.44
2023-05-16T03:45:51.601Z,49.82
2023-05-16T03:48:19.718Z,48.95
2023-05-16T03:50:47.914Z,48.90
2023-05-16T03:53:15.475Z,48.45
2023-05-16T03:55:43.457Z,49.31
2023-05-16T03:58:11.585Z,49.69
2023-05-16T04:00:39.262Z,49.47
2023-05-16T04:03:06.805Z,49.27
2023-05-16T04:05:34.396Z,49.94
2023-05-16T04:08:02.011Z,49.80
2023-05-16T04:10:29.686Z,49.68
2023-05-16T04:12:57.234Z,49.03
2023-05-16T04:15:25.014Z,48.32
2023-05-16T04:17:52.723Z,49.06
2023-05-16T04:20:20.333Z,48.22
2023-05-16T04:22:48.142Z,47.76
2023-05-16T04:25:15.789Z,47.21
2023-05-16T04:27:43.680Z,47.03
2023-05-16T04:30:12.126Z,47.49
2023-05-16T04:32:39.971Z,47.01
2023-05-16T04:35:09.271Z,46.97
2023-05-16T04:37:38.110Z,47.67
2023-05-16T04:40:07.852Z,47.67
2023-05-16T04:42:35.639Z,46.64
2023-05-16T04:45:04.183Z,46.02
2023-05-16T04:47:32.363Z,46.37
2023-05-16T04:49:59.818Z,46.27
2023-05-16T04:52:27.307Z,45.81
2023-05-16T04:54:54.883Z,46.16
2023-05-16T04:57:22.774Z,46.09
2023-05-16T04:59:50.295Z,46.48
2023-05-16T05:02:17.854Z,46.75
2023-05-16T05:04:45.626Z,46.20
2023-05-16T05:07:14.592Z,45.18
2023-05-16T05:09:43.147Z,45.62
2023-05-16T05:12:11.375Z,45.53
2023-05-16T05:14:38.906Z,46.01
2023-05-16T05:17:06.769Z,46.17
2023-05-16T05:19:34.535Z,45.41
2023-05-16T05:22:02.128Z,44.94
2023-05-16T05:24:29.867Z,45.50
2023-05-16T05:26:57.403Z,45.83
2023-05-16T05:29:24.950Z,46.20
2023-05-16T05:31:52.655Z,45.94
2023-05-16T05:34:20.489Z,45.66
2023-05-16T05:36:48.062Z,45.61
2023-05-16T05:39:15.735Z,46.00
2023-05-16T05:41:43.365Z,45.58
2023-05-16T05:44:10.791Z,45.42
2023-05-16T05:46:38.974Z,45.39
2023-05-16T05:49:06.482Z,45.15
2023-05-16T05:51:34.871Z,46.06
2023-05-16T05:54:03.184Z,47.02
2023-05-16T05:56:30.973Z,45.92
2023-05-16T05:58:58.633Z,46.41
2023-05-16T06:01:26.611Z,45.74
2023-05-16T06:03:54.118Z,46.16
2023-05-16T06:06:21.665Z,46.53
2023-05-16T06:08:49.287Z,45.84
2023-05-16T06:11:16.800Z,46.36
2023-05-16T06:13:44.381Z,46.09
2023-05-16T06:16:11.953Z,44.27
2023-05-16T06:18:39.574Z,45.12
2023-05-16T06:21:07.165Z,45.06
2023-05-16T06:23:35.937Z,45.19
2023-05-16T06:26:03.832Z,45.58
2023-05-16T06:28:31.870Z,46.14
2023-05-16T06:30:59.358Z,44.74
2023-05-16T06:33:27.617Z,44.63
2023-05-16T06:35:55.188Z,44.45
2023-05-16T06:38:22.801Z,43.94
2023-05-16T06:40:50.289Z,43.99
2023-05-16T06:43:18.020Z,44.81
2023-05-16T06:45:46.858Z,44.49
2023-05-16T06:48:15.570Z,43.49
2023-05-16T06:50:43.192Z,42.82
2023-05-16T06:53:12.187Z,43.51
2023-05-16T06:55:40.161Z,44.22
2023-05-16T06:58:07.664Z,44.43
2023-05-16T07:00:35.944Z,43.90
2023-05-16T07:03:04.041Z,43.07
2023-05-16T07:05:32.174Z,41.84
2023-05-16T07:08:00.009Z,42.65
2023-05-16T07:10:27.724Z,42.63
2023-05-16T07:12:55.858Z,43.52
2023-05-16T07:15:23.544Z,41.00
2023-05-16T07:17:51.118Z,41.80
2023-05-16T07:20:18.784Z,42.24
2023-05-16T07:22:46.351Z,41.42
2023-05-16T07:25:15.246Z,41.63
2023-05-16T07:27:44.859Z,41.53
2023-05-16T07:30:13.349Z,40.23
2023-05-16T07:32:41.450Z,40.27
2023-05-16T07:35:10.092Z,39.09
2023-05-16T07:37:42.604Z,38.71
2023-05-16T07:40:13.324Z,37.70
2023-05-16T07:42:40.957Z,37.97
2023-05-16T07:45:09.043Z,37.41
2023-05-16T07:47:37.091Z,38.61
2023-05-16T07:50:05.171Z,36.92
2023-05-16T07:52:33.056Z,37.23
2023-05-16T07:55:00.692Z,37.43
2023-05-16T07:57:28.548Z,37.57
2023-05-16T07:59:56.176Z,36.26
2023-05-16T08:02:26.455Z,36.75
2023-05-16T08:04:55.150Z,36.53
2023-05-16T08:07:23.102Z,36.34
2023-05-16T08:09:50.617Z,36.43
2023-05-16T08:12:18.338Z,36.47
2023-05-16T08:14:45.967Z,35.69
2023-05-16T08:17:14.793Z,36.88
2023-05-16T08:19:42.682Z,35.59
2023-05-16T08:22:10.200Z,36.09
2023-05-16T08:24:38.081Z,36.55
2023-05-16T08:27:06.075Z,35.80
2023-05-16T08:29:34.494Z,33.42
2023-05-16T08:32:02.180Z,35.10
2023-05-16T08:34:33.369Z,36.05
2023-05-16T08:37:01.605Z,34.46
2023-05-16T08:39:30.837Z,34.38
2023-05-16T08:41:59.039Z,35.63
2023-05-16T08:44:28.587Z,35.65
2023-05-16T08:46:56.317Z,34.36
2023-05-16T08:49:24.091Z,34.34
2023-05-16T08:51:51.987Z,34.63
2023-05-16T08:54:19.864Z,33.61
2023-05-16T08:56:48.328Z,33.55
2023-05-16T08:59:15.811Z,34.51
2023-05-16T09:01:43.359Z,33.29
2023-05-16T09:04:11.078Z,33.08
2023-05-16T09:06:38.607Z,32.09
2023-05-16T09:09:08.164Z,31.18
2023-05-16T09:11:37.115Z,31.70
2023-05-16T09:14:05.831Z,32.41
2023-05-16T09:16:33.861Z,33.64
2023-05-16T09:19:01.936Z,32.61
2023-05-16T09:21:33.470Z,32.28
2023-05-16T09:24:04.986Z,32.65
2023-05-16T09:26:33.850Z,33.31
2023-05-16T09:29:02.364Z,32.08
2023-05-16T09:31:38.056Z,31.45
2023-05-16T09:34:09.353Z,32.36
2023-05-16T09:36:37.746Z,31.96
2023-05-16T09:39:08.819Z,29.47
2023-05-16T09:41:36.698Z,29.31
2023-05-16T09:44:06.508Z,31.25
2023-05-16T09:46:37.744Z,30.70
2023-05-16T09:49:05.406Z,31.87
2023-05-16T09:51:33.603Z,28.50
2023-05-16T09:54:01.266Z,29.02
2023-05-16T09:56:30.226Z,29.75
2023-05-16T09:58:57.816Z,30.00
2023-05-16T10:01:25.397Z,30.56
2023-05-16T10:03:53.195Z,30.81
2023-05-16T10:06:20.903Z,30.15
2023-05-16T10:08:48.551Z,30.00
2023-05-16T10:11:16.419Z,29.60
2023-05-16T10:13:45.052Z,29.16
2023-05-16T10:16:12.773Z,30.07
2023-05-16T10:18:40.612Z,29.92
2023-05-16T10:21:11.742Z,29.77
2023-05-16T10:23:43.625Z,30.40
2023-05-16T10:26:14.195Z,29.38
2023-05-16T10:28:42.170Z,29.66
2023-05-16T10:31:11.402Z,29.45
2023-05-16T10:33:40.247Z,29.31
2023-05-16T10:36:11.200Z,28.78
2023-05-16T10:38:39.529Z,28.72
2023-05-16T10:41:07.715Z,29.31
2023-05-16T10:43:35.432Z,29.66
2023-05-16T10:46:05.375Z,30.12
2023-05-16T10:48:35.341Z,29.77
2023-05-16T10:51:03.416Z,29.71
2023-05-16T10:53:35.263Z,29.25
2023-05-16T10:56:03.320Z,30.33
2023-05-16T10:58:33.973Z,29.16
2023-05-16T11:01:35.860Z,28.68
2023-05-16T11:04:10.523Z,29.41
2023-05-16T11:06:41.104Z,29.01
2023-05-16T11:09:19.834Z,28.98
2023-05-16T11:11:53.654Z,29.72
2023-05-16T11:14:42.576Z,28.96
2023-05-16T11:17:23.280Z,29.01
2023-05-16T11:19:59.631Z,29.48
2023-05-16T11:22:31.125Z,29.83
2023-05-16T11:25:03.372Z,29.60
2023-05-16T11:27:38.856Z,29.85
2023-05-16T11:30:06.583Z,30.83
2023-05-16T11:32:35.598Z,30.73
2023-05-16T11:35:04.252Z,31.08
2023-05-16T11:37:32.047Z,31.85
2023-05-16T11:40:04.414Z,32.28
2023-05-16T11:42:41.546Z,31.88
2023-05-16T11:45:10.530Z,32.28
2023-05-16T11:47:39.011Z,32.27
2023-05-16T11:50:27.462Z,31.37
2023-05-16T11:52:57.569Z,31.39
2023-05-16T11:55:41.432Z,31.44
2023-05-16T11:58:10.187Z,31.25
2023-05-16T12:00:37.803Z,30.57
2023-05-16T12:03:06.096Z,30.12
2023-05-16T12:05:35.017Z,29.62
2023-05-16T12:08:04.965Z,29.40
2023-05-16T12:10:35.794Z,30.23
2023-05-16T12:13:03.751Z,30.72
2023-05-16T12:15:31.843Z,30.83
2023-05-16T12:17:59.732Z,31.64
2023-05-16T12:20:27.601Z,30.93
2023-05-16T12:22:57.601Z,31.37
2023-05-16T12:25:29.549Z,31.14
2023-05-16T12:28:01.315Z,30.61
2023-05-16T12:30:31.312Z,31.63
2023-05-16T12:33:00.160Z,31.32
2023-05-16T12:35:33.429Z,31.66
2023-05-16T12:38:05.841Z,30.78
2023-05-16T12:40:33.424Z,31.35
2023-05-16T12:43:01.266Z,31.34
2023-05-16T12:45:29.334Z,30.51
2023-05-16T12:47:56.972Z,31.11
2023-05-16T12:50:29.534Z,30.17
2023-05-16T12:52:59.635Z,30.67
2023-05-16T12:55:27.426Z,31.73
2023-05-16T12:57:55.664Z,30.76
2023-05-16T13:00:23.580Z,31.38
2023-05-16T13:02:52.371Z,31.43
2023-05-16T13:05:22.166Z,31.02
2023-05-16T13:07:51.642Z,31.70
2023-05-16T13:10:19.313Z,31.17
2023-05-16T13:12:47.508Z,32.35
2023-05-16T13:15:15.302Z,32.02
2023-05-16T13:17:46.360Z,31.39
2023-05-16T13:20:15.358Z,30.87
2023-05-16T13:22:43.706Z,30.36
2023-05-16T13:25:12.302Z,31.63
2023-05-16T13:27:39.932Z,32.15
2023-05-16T13:30:07.956Z,33.32
2023-05-16T13:32:36.175Z,33.08
2023-05-16T13:35:04.264Z,32.76
2023-05-16T13:37:32.261Z,32.24
2023-05-16T13:39:59.985Z,30.98
2023-05-16T13:42:27.695Z,31.00
2023-05-16T13:44:55.244Z,31.74
2023-05-16T13:47:22.776Z,31.19
2023-05-16T13:49:50.808Z,31.25
2023-05-16T13:52:18.472Z,31.86
2023-05-16T13:54:46.117Z,31.53
2023-05-16T13:57:13.666Z,31.76
2023-05-16T14:02:11.710Z,30.96
2023-05-16T14:04:39.177Z,30.77
2023-05-16T14:07:07.264Z,30.60
2023-05-16T14:09:35.527Z,31.00
2023-05-16T14:12:03.134Z,31.12
2023-05-16T14:14:30.815Z,31.62
2023-05-16T14:16:58.458Z,31.82
2023-05-16T14:19:26.174Z,32.08
2023-05-16T14:21:53.771Z,32.10
2023-05-16T14:24:21.450Z,31.36
2023-05-16T14:26:49.306Z,32.23
2023-05-16T14:29:17.146Z,31.94
2023-05-16T14:31:44.937Z,32.14
2023-05-16T14:34:12.599Z,32.43
2023-05-16T14:36:40.120Z,32.77
2023-05-16T14:39:08.706Z,33.54
2023-05-16T14:41:36.547Z,33.89
2023-05-16T14:44:04.335Z,34.02
2023-05-16T14:46:32.031Z,33.81
2023-05-16T14:48:59.760Z,34.21
2023-05-16T14:51:27.290Z,34.50
2023-05-16T14:53:56.067Z,35.27
2023-05-16T14:56:23.610Z,35.74
2023-05-16T14:58:51.385Z,36.13
2023-05-16T15:01:19.018Z,36.25
2023-05-16T15:03:55.550Z,36.36
2023-05-16T15:06:24.873Z,36.21
2023-05-16T15:08:54.068Z,36.59
2023-05-16T15:11:21.895Z,36.57
2023-05-16T15:13:49.520Z,36.36
2023-05-16T15:16:17.113Z,36.12
2023-05-16T15:18:44.904Z,36.14
2023-05-16T15:21:12.658Z,36.06
2023-05-16T15:23:40.302Z,36.09
2023-05-16T15:26:07.841Z,36.48
2023-05-16T15:28:35.850Z,36.55
2023-05-16T15:31:04.813Z,36.69
2023-05-16T15:33:33.245Z,37.05
2023-05-16T15:36:01.709Z,37.31
2023-05-16T15:38:30.681Z,37.39
2023-05-16T15:41:14.203Z,37.52
2023-05-16T15:43:46.353Z,37.41
2023-05-16T15:46:14.097Z,37.84
2023-05-16T15:48:44.684Z,38.39
2023-05-16T15:51:13.155Z,37.89
2023-05-16T15:53:40.768Z,38.57
2023-05-16T15:56:08.866Z,38.74
2023-05-16T15:58:36.590Z,38.90
2023-05-16T16:01:04.196Z,38.86
2023-05-16T16:03:32.479Z,38.67
2023-05-16T16:06:00.108Z,39.25
2023-05-16T16:08:28.071Z,40.15
2023-05-16T16:10:57.141Z,40.58
2023-05-16T16:13:25.349Z,41.48
2023-05-16T16:15:52.948Z,41.58
2023-05-16T16:18:20.473Z,41.01
2023-05-16T16:20:48.100Z,39.91
2023-05-16T16:23:15.930Z,40.45
2023-05-16T16:25:43.446Z,40.05
2023-05-16T16:28:11.121Z,39.86
2023-05-16T16:30:39.413Z,40.06
2023-05-16T16:33:07.351Z,40.41
2023-05-16T16:35:34.996Z,40.18
2023-05-16T16:38:07.130Z,39.88
2023-05-16T16:40:35.394Z,40.45
2023-05-16T16:43:04.444Z,40.38
2023-05-16T16:45:32.076Z,41.43
2023-05-16T16:47:59.757Z,40.86
2023-05-16T16:50:27.563Z,41.37
2023-05-16T16:52:55.261Z,41.30
2023-05-16T16:55:22.810Z,42.16
2023-05-16T16:57:50.540Z,42.24
2023-05-16T17:00:18.496Z,43.32
2023-05-16T17:02:46.222Z,42.95
2023-05-16T17:05:13.959Z,43.69
2023-05-16T17:07:42.693Z,44.09
2023-05-16T17:10:10.532Z,44.51
2023-05-16T17:12:46.189Z,44.74
2023-05-16T17:15:13.864Z,45.15
2023-05-16T17:17:42.167Z,45.23
2023-05-16T17:20:12.709Z,45.30
2023-05-16T17:22:40.822Z,45.11
2023-05-16T17:25:09.958Z,45.04
2023-05-16T17:27:37.801Z,45.38
2023-05-16T17:30:06.479Z,45.07
2023-05-16T17:32:34.339Z,45.09
2023-05-16T17:35:04.217Z,45.42
2023-05-16T17:37:32.469Z,45.64
2023-05-16T17:40:00.050Z,45.82
2023-05-16T17:42:27.893Z,46.24
2023-05-16T17:44:55.474Z,46.32
2023-05-16T17:47:23.400Z,46.46
2023-05-16T17:49:51.050Z,46.57
2023-05-16T17:52:20.296Z,46.88
2023-05-16T17:54:49.078Z,47.30
2023-05-16T17:57:16.626Z,47.12
2023-05-16T17:59:44.434Z,47.23
2023-05-16T18:02:15.398Z,47.03
2023-05-16T18:04:43.354Z,47.34
2023-05-16T18:07:11.010Z,46.99
2023-05-16T18:09:38.816Z,47.08
2023-05-16T18:12:07.106Z,46.36
2023-05-16T18:14:35.621Z,44.83
2023-05-16T18:17:03.804Z,45.07
2023-05-16T18:19:31.809Z,44.91
2023-05-16T18:22:00.111Z,44.39
2023-05-16T18:24:27.921Z,44.69
2023-05-16T18:26:56.298Z,45.29
2023-05-16T18:29:23.883Z,44.55
2023-05-16T18:31:51.609Z,45.06
2023-05-16T18:34:19.323Z,44.91
2023-05-16T18:36:48.618Z,44.68
2023-05-16T18:39:17.931Z,44.74
2023-05-16T18:41:46.833Z,44.77
2023-05-16T18:44:17.255Z,45.39
2023-05-16T18:46:46.128Z,45.17
2023-05-16T18:49:14.053Z,44.57
2023-05-16T18:51:41.670Z,44.79
2023-05-16T18:54:09.196Z,45.46
2023-05-16T18:56:37.203Z,45.41
2023-05-16T18:59:04.873Z,45.56
2023-05-16T19:01:32.805Z,45.51
2023-05-16T19:04:00.708Z,45.63
2023-05-16T19:06:28.536Z,45.84
2023-05-16T19:08:56.164Z,45.97
2023-05-16T19:11:24.137Z,45.79
2023-05-16T19:13:51.755Z,45.87
2023-05-16T19:16:19.398Z,46.16
2023-05-16T19:18:47.251Z,45.82
2023-05-16T19:21:15.950Z,45.77
2023-05-16T19:23:45.317Z,45.52
2023-05-16T19:26:12.935Z,45.73
2023-05-16T19:28:42.045Z,45.79
2023-05-16T19:31:12.969Z,46.03
2023-05-16T19:33:43.128Z,45.72
2023-05-16T19:36:10.701Z,46.67
2023-05-16T19:38:38.607Z,46.03
2023-05-16T19:41:06.137Z,45.56
2023-05-16T19:43:34.915Z,45.75
2023-05-16T19:46:02.563Z,46.00
2023-05-16T19:48:30.285Z,45.97
2023-05-16T19:50:58.032Z,46.47
2023-05-16T19:53:25.890Z,46.99
2023-05-16T19:55:53.959Z,46.39
2023-05-16T19:58:21.734Z,46.29
2023-05-16T20:00:50.966Z,46.35
2023-05-16T20:03:19.239Z,46.65
2023-05-16T20:05:46.988Z,47.12
2023-05-16T20:08:14.657Z,46.55
2023-05-16T20:10:42.392Z,46.59
2023-05-16T20:13:10.662Z,46.79
2023-05-16T20:15:38.252Z,46.71
2023-05-16T20:18:06.468Z,46.77
2023-05-16T20:20:34.169Z,46.51
2023-05-16T20:23:01.681Z,46.49
2023-05-16T20:25:30.374Z,46.48
2023-05-16T20:27:59.054Z,46.73
2023-05-16T20:30:26.824Z,47.15
2023-05-16T20:32:54.638Z,46.94
2023-05-16T20:35:22.259Z,46.93
2023-05-16T20:37:50.050Z,47.21
2023-05-16T20:40:17.925Z,47.03
2023-05-16T20:42:45.822Z,46.90
2023-05-16T20:45:13.400Z,47.91
2023-05-16T20:47:42.569Z,47.06
2023-05-16T20:50:10.711Z,47.04
2023-05-16T20:52:38.436Z,47.60
2023-05-16T20:55:06.509Z,47.45
2023-05-16T20:57:34.365Z,47.32
2023-05-16T21:00:01.930Z,47.11
2023-05-16T21:02:30.346Z,47.45
2023-05-16T21:04:59.582Z,47.66
2023-05-16T21:07:33.710Z,48.10
2023-05-16T21:10:01.245Z,48.04
2023-05-16T21:12:29.042Z,48.19
2023-05-16T21:14:57.010Z,48.09
2023-05-16T21:17:24.531Z,48.44
2023-05-16T21:19:52.274Z,47.56
2023-05-16T21:22:20.034Z,48.37
2023-05-16T21:24:47.582Z,48.32
2023-05-16T21:27:15.277Z,47.86
2023-05-16T21:29:42.721Z,48.33
2023-05-16T21:32:10.385Z,48.30
2023-05-16T21:34:37.949Z,48.70
2023-05-16T21:37:07.358Z,48.25
2023-05-16T21:39:36.001Z,48.58
2023-05-16T21:42:04.075Z,49.62
2023-05-16T21:44:31.821Z,49.27
2023-05-16T21:46:59.574Z,48.89
2023-05-16T21:49:27.178Z,49.07
2023-05-16T21:51:54.778Z,49.17
2023-05-16T21:54:22.359Z,49.03
2023-05-16T21:56:49.943Z,49.04
2023-05-16T21:59:17.521Z,48.50
2023-05-16T22:01:45.326Z,48.62
2023-05-16T22:04:12.985Z,48.01
2023-05-16T22:06:40.771Z,47.91
2023-05-16T22:09:08.864Z,47.72
2023-05-16T22:11:36.412Z,47.75
2023-05-16T22:14:04.243Z,47.91
2023-05-16T22:16:32.104Z,47.75
2023-05-16T22:18:59.844Z,47.93
2023-05-16T22:21:27.616Z,47.84
2023-05-16T22:23:55.206Z,47.82
2023-05-16T22:26:22.798Z,47.78
2023-05-16T22:28:50.355Z,47.80
2023-05-16T22:31:18.135Z,48.29
2023-05-16T22:33:46.000Z,47.88
2023-05-16T22:36:13.598Z,47.82
2023-05-16T22:38:41.347Z,48.72
2023-05-16T22:41:09.056Z,48.00
2023-05-16T22:43:36.917Z,47.80
2023-05-16T22:46:04.631Z,47.21
2023-05-16T22:48:32.679Z,47.44
2023-05-16T22:51:00.959Z,47.55
2023-05-16T22:53:29.131Z,47.45
2023-05-16T22:55:56.735Z,47.61
2023-05-16T22:58:24.304Z,47.17
2023-05-16T23:00:52.164Z,46.82
2023-05-16T23:03:19.846Z,47.06
2023-05-16T23:05:47.522Z,46.93
2023-05-16T23:08:15.063Z,47.29
2023-05-16T23:10:42.589Z,47.17
2023-05-16T23:13:10.265Z,46.94
2023-05-16T23:15:38.054Z,46.80
2023-05-16T23:18:08.409Z,46.82
2023-05-16T23:20:36.302Z,47.27
2023-05-16T23:23:04.092Z,46.86
2023-05-16T23:25:31.772Z,46.71
2023-05-16T23:27:59.560Z,46.32
2023-05-16T23:30:27.101Z,46.50
2023-05-16T23:32:55.005Z,47.04
2023-05-16T23:35:22.870Z,46.88
2023-05-16T23:37:50.373Z,47.01
2023-05-16T23:40:18.139Z,47.03
2023-05-16T23:42:45.708Z,46.87
2023-05-16T23:45:13.312Z,46.32
2023-05-16T23:47:41.189Z,46.34
2023-05-16T23:50:09.644Z,46.04
2023-05-16T23:52:37.385Z,46.38
2023-05-16T23:55:05.591Z,47.17
2023-05-16T23:57:33.700Z,46.78
